Ever Ulysses — 9V7962 — position and weather

sailwx.info

Track history (hours):
 
Tides and Currents Weather Stations Pressure Air Temp Water Temp Dewpoint Dewpoint Depression Visibility Wind Speed Wind Dir Waves Ship Positions

Ever Ulysses

Last reported at 2015-May-15 22:13 UTC. Time now 2015-May-24 03:14 UTC.
Position N 29°57' E 032°35'.
Warning: this ship's position is 8 days out of date.

Length 285 m; draft 11.5 m.

Type: Cargo ship. MMSI: 564442000.

Date/timePositionNaut miles runAvg speedWind from/ knotsBaromVisibWave heightAir tempDewpointWater temp
2015-May-15 22:13N 29°57' E 032°35'14 8.6
2015-May-15 20:33N 30°11' E 032°34'35 8.2
2015-May-15 16:14N 30°45' E 032°20'20 9.3
2015-May-15 14:05N 31°05' E 032°19'8 9.5
2015-May-15 13:16N 31°12' E 032°18'7 7.6
2015-May-15 12:20N 31°19' E 032°22'5 1.0
2015-May-15 07:07N 31°24' E 032°20'0 0.0
2015-May-15 01:13N 31°24' E 032°20'36 3.0
2015-May-14 13:29N 31°49' E 031°51'4515.3
2015-May-14 10:34N 32°17' E 031°09'24217.1
2015-May-13 20:26N 34°48' E 027°23'2117.1
2015-May-13 19:14N 35°01' E 027°03'1116.5
2015-May-13 18:33N 35°09' E 026°53'1816.7
2015-May-13 17:27N 35°22' E 026°37'1516.9
2015-May-13 16:33N 35°32' E 026°23'2019.2
2015-May-13 15:31N 35°42' E 026°02'1716.9
2015-May-13 14:30N 35°51' E 025°44'1313.8
2015-May-13 13:33N 35°58' E 025°30'1616.3
2015-May-13 12:33N 36°06' E 025°13'1616.3
2015-May-13 11:33N 36°14' E 024°55'2016.6
2015-May-13 10:22N 36°24' E 024°34'6216.1
2015-May-13 06:32N 37°15' E 023°50'1716.9
2015-May-13 05:33N 37°31' E 023°44'1716.8
2015-May-13 04:34N 37°47' E 023°38'1010.4
2015-May-13 03:33N 37°57' E 023°36'0 0.0
2015-May-13 02:32N 37°57' E 023°36'0 0.0
2015-May-13 01:32N 37°57' E 023°36'0 0.0
2015-May-13 00:32N 37°57' E 023°36'0 0.0
2015-May-12 23:32N 37°57' E 023°36'0 0.0
2015-May-12 22:32N 37°57' E 023°36'0 0.1
2015-May-12 21:32N 37°57' E 023°36'0 0.1
2015-May-12 20:32N 37°57' E 023°36'0 0.0
2015-May-12 19:32N 37°57' E 023°36'0 0.0
2015-May-12 18:32N 37°57' E 023°36'0 0.0
2015-May-12 17:32N 37°57' E 023°36'0 0.0
2015-May-12 16:32N 37°57' E 023°36'0 0.0
2015-May-12 15:32N 37°57' E 023°36'0 0.0
2015-May-12 14:32N 37°57' E 023°36'0 0.0
2015-May-12 13:32N 37°57' E 023°36'0 0.1
2015-May-12 12:33N 37°57' E 023°36'3 3.2
2015-May-12 11:33N 37°54' E 023°37'5 5.0
2015-May-12 10:33N 37°50' E 023°40'1615.6
2015-May-12 09:33N 37°35' E 023°47'178 5.9
2015-May-11 03:22N 38°01' E 020°04'4313.6
2015-May-11 00:11N 38°41' E 019°44'913.3
2015-May-10 23:32N 38°50' E 019°40'1313.7
2015-May-10 22:34N 39°02' E 019°34'1414.0
2015-May-10 21:33N 39°15' E 019°28'1414.1
2015-May-10 20:33N 39°28' E 019°21'1414.5
2015-May-10 19:33N 39°42' E 019°15'1514.6
2015-May-10 18:33N 39°55' E 019°08'1414.4
2015-May-10 17:34N 40°09' E 019°02'1414.1
2015-May-10 16:34N 40°22' E 018°55'  
2015-May-06 20:32N 41°14' E 018°09'2016.8
2015-May-06 19:21N 41°03' E 018°32'1716.4
2015-May-06 18:20N 40°48' E 018°41'1316.7
2015-May-06 17:33N 40°36' E 018°48'1716.9
2015-May-06 16:34N 40°20' E 018°56'1716.7
2015-May-06 15:34N 40°05' E 019°04'1716.5
2015-May-06 14:34N 39°49' E 019°12'1716.6
2015-May-06 13:34N 39°34' E 019°19'1716.7
2015-May-06 12:33N 39°18' E 019°27'1716.6
2015-May-06 11:34N 39°02' E 019°34'1817.1
2015-May-06 10:32N 38°46' E 019°42'1717.0
2015-May-06 09:33N 38°30' E 019°49'1616.1
2015-May-06 08:34N 38°15' E 019°57'4418.1
2015-May-06 06:08N 37°35' E 020°18'1017.3
2015-May-06 05:33N 37°28' E 020°27'  
Track history (hours):
 
Tides and Currents Weather Stations Pressure Air Temp Water Temp Dewpoint Dewpoint Depression Visibility Wind Speed Wind Dir Waves Ship Positions

Ever Ulysses

Last reported at 2015-May-15 22:13 UTC. Time now 2015-May-24 03:14 UTC.
Position N 29°57' E 032°35'.
Warning: this ship's position is 8 days out of date.

Length 285 m; draft 11.5 m.

Type: Cargo ship. MMSI: 564442000.

Date/timePositionNaut miles runAvg speedWind from/ knotsBaromVisibWave heightAir tempDewpointWater temp
2015-May-15 22:13N 29°57' E 032°35'14 8.6
2015-May-15 20:33N 30°11' E 032°34'35 8.2
2015-May-15 16:14N 30°45' E 032°20'20 9.3
2015-May-15 14:05N 31°05' E 032°19'8 9.5
2015-May-15 13:16N 31°12' E 032°18'7 7.6
2015-May-15 12:20N 31°19' E 032°22'5 1.0
2015-May-15 07:07N 31°24' E 032°20'0 0.0
2015-May-15 01:13N 31°24' E 032°20'36 3.0
2015-May-14 13:29N 31°49' E 031°51'4515.3
2015-May-14 10:34N 32°17' E 031°09'24217.1
2015-May-13 20:26N 34°48' E 027°23'2117.1
2015-May-13 19:14N 35°01' E 027°03'1116.5
2015-May-13 18:33N 35°09' E 026°53'1816.7
2015-May-13 17:27N 35°22' E 026°37'1516.9
2015-May-13 16:33N 35°32' E 026°23'2019.2
2015-May-13 15:31N 35°42' E 026°02'1716.9
2015-May-13 14:30N 35°51' E 025°44'1313.8
2015-May-13 13:33N 35°58' E 025°30'1616.3
2015-May-13 12:33N 36°06' E 025°13'1616.3
2015-May-13 11:33N 36°14' E 024°55'2016.6
2015-May-13 10:22N 36°24' E 024°34'6216.1
2015-May-13 06:32N 37°15' E 023°50'1716.9
2015-May-13 05:33N 37°31' E 023°44'1716.8
2015-May-13 04:34N 37°47' E 023°38'1010.4
2015-May-13 03:33N 37°57' E 023°36'0 0.0
2015-May-13 02:32N 37°57' E 023°36'0 0.0
2015-May-13 01:32N 37°57' E 023°36'0 0.0
2015-May-13 00:32N 37°57' E 023°36'0 0.0
2015-May-12 23:32N 37°57' E 023°36'0 0.0
2015-May-12 22:32N 37°57' E 023°36'0 0.1
2015-May-12 21:32N 37°57' E 023°36'0 0.1
2015-May-12 20:32N 37°57' E 023°36'0 0.0
2015-May-12 19:32N 37°57' E 023°36'0 0.0
2015-May-12 18:32N 37°57' E 023°36'0 0.0
2015-May-12 17:32N 37°57' E 023°36'0 0.0
2015-May-12 16:32N 37°57' E 023°36'0 0.0
2015-May-12 15:32N 37°57' E 023°36'0 0.0
2015-May-12 14:32N 37°57' E 023°36'0 0.0
2015-May-12 13:32N 37°57' E 023°36'0 0.1
2015-May-12 12:33N 37°57' E 023°36'3 3.2
2015-May-12 11:33N 37°54' E 023°37'5 5.0
2015-May-12 10:33N 37°50' E 023°40'1615.6
2015-May-12 09:33N 37°35' E 023°47'178 5.9
2015-May-11 03:22N 38°01' E 020°04'4313.6
2015-May-11 00:11N 38°41' E 019°44'913.3
2015-May-10 23:32N 38°50' E 019°40'1313.7
2015-May-10 22:34N 39°02' E 019°34'1414.0
2015-May-10 21:33N 39°15' E 019°28'1414.1
2015-May-10 20:33N 39°28' E 019°21'1414.5
2015-May-10 19:33N 39°42' E 019°15'1514.6
2015-May-10 18:33N 39°55' E 019°08'1414.4
2015-May-10 17:34N 40°09' E 019°02'1414.1
2015-May-10 16:34N 40°22' E 018°55'  
2015-May-06 20:32N 41°14' E 018°09'2016.8
2015-May-06 19:21N 41°03' E 018°32'1716.4
2015-May-06 18:20N 40°48' E 018°41'1316.7
2015-May-06 17:33N 40°36' E 018°48'1716.9
2015-May-06 16:34N 40°20' E 018°56'1716.7
2015-May-06 15:34N 40°05' E 019°04'1716.5
2015-May-06 14:34N 39°49' E 019°12'1716.6
2015-May-06 13:34N 39°34' E 019°19'1716.7
2015-May-06 12:33N 39°18' E 019°27'1716.6
2015-May-06 11:34N 39°02' E 019°34'1817.1
2015-May-06 10:32N 38°46' E 019°42'1717.0
2015-May-06 09:33N 38°30' E 019°49'1616.1
2015-May-06 08:34N 38°15' E 019°57'4418.1
2015-May-06 06:08N 37°35' E 020°18'1017.3
2015-May-06 05:33N 37°28' E 020°27'  

Dump ship's entire track history